createdAt,value
2023-04-17T00:02:00.549Z,27.45
2023-04-17T00:04:29.816Z,29.00
2023-04-17T00:06:59.772Z,29.08
2023-04-17T00:09:36.198Z,28.65
2023-04-17T00:12:05.943Z,28.35
2023-04-17T00:14:34.750Z,30.27
2023-04-17T00:17:01.211Z,30.77
2023-04-17T00:19:27.659Z,29.55
2023-04-17T00:21:54.100Z,31.02
2023-04-17T00:24:20.653Z,29.75
2023-04-17T00:26:49.701Z,31.70
2023-04-17T00:29:16.231Z,30.30
2023-04-17T00:31:43.488Z,30.45
2023-04-17T00:34:10.084Z,31.23
2023-04-17T00:36:36.606Z,30.80
2023-04-17T00:39:03.140Z,30.25
2023-04-17T00:41:29.598Z,31.58
2023-04-17T00:43:56.156Z,31.00
2023-04-17T00:46:25.714Z,30.83
2023-04-17T00:48:52.559Z,30.88
2023-04-17T00:51:19.170Z,32.53
2023-04-17T00:53:46.055Z,30.48
2023-04-17T00:56:16.815Z,31.35
2023-04-17T00:58:43.932Z,30.05
2023-04-17T01:01:12.189Z,30.48
2023-04-17T01:03:38.801Z,31.42
2023-04-17T01:06:06.170Z,32.78
2023-04-17T01:08:41.560Z,31.35
2023-04-17T01:11:12.116Z,31.20
2023-04-17T01:13:48.816Z,30.90
2023-04-17T01:16:21.806Z,31.52
2023-04-17T01:18:48.448Z,30.23
2023-04-17T01:21:15.369Z,28.83
2023-04-17T01:23:53.105Z,26.60
2023-04-17T01:26:24.519Z,29.67
2023-04-17T01:28:56.618Z,29.42
2023-04-17T01:31:28.190Z,30.02
2023-04-17T01:33:54.881Z,30.42
2023-04-17T01:36:21.589Z,31.38
2023-04-17T01:38:48.170Z,32.88
2023-04-17T01:41:14.682Z,31.25
2023-04-17T01:43:44.077Z,28.70
2023-04-17T01:46:12.720Z,26.50
2023-04-17T01:48:39.799Z,26.23
2023-04-17T01:51:06.382Z,26.80
2023-04-17T01:53:33.874Z,23.67
2023-04-17T01:56:01.966Z,23.90
2023-04-17T01:58:28.825Z,23.80
2023-04-17T02:00:55.492Z,24.60
2023-04-17T02:03:24.417Z,23.38
2023-04-17T02:05:53.570Z,23.20
2023-04-17T02:08:20.126Z,25.52
2023-04-17T02:10:46.608Z,25.27
2023-04-17T02:13:13.293Z,24.25
2023-04-17T02:15:40.329Z,23.73
2023-04-17T02:18:07.375Z,23.45
2023-04-17T02:20:34.656Z,22.38
2023-04-17T02:23:02.579Z,22.65
2023-04-17T02:25:29.682Z,22.55
2023-04-17T02:27:56.782Z,20.75
2023-04-17T02:30:24.181Z,20.27
2023-04-17T02:32:56.208Z,19.73
2023-04-17T02:35:28.049Z,19.13
2023-04-17T02:37:54.816Z,20.17
2023-04-17T02:40:21.358Z,19.38
2023-04-17T02:42:47.846Z,19.67
2023-04-17T02:45:14.322Z,18.33
2023-04-17T02:47:41.308Z,18.00
2023-04-17T02:50:09.069Z,18.83
2023-04-17T02:52:35.548Z,18.85
2023-04-17T02:55:02.088Z,19.20
2023-04-17T02:57:28.701Z,19.35
2023-04-17T02:59:55.330Z,19.00
2023-04-17T03:02:22.213Z,18.73
2023-04-17T03:04:50.233Z,19.60
2023-04-17T03:07:18.768Z,19.50
2023-04-17T03:09:48.955Z,18.33
2023-04-17T03:12:17.131Z,19.63
2023-04-17T03:14:44.217Z,19.02
2023-04-17T03:17:12.120Z,19.95
2023-04-17T03:19:38.560Z,19.17
2023-04-17T03:22:05.876Z,18.90
2023-04-17T03:24:33.325Z,18.83
2023-04-17T03:27:03.731Z,19.70
2023-04-17T03:29:30.257Z,18.35
2023-04-17T03:31:56.757Z,18.50
2023-04-17T03:34:23.498Z,19.10
2023-04-17T03:36:49.959Z,18.40
2023-04-17T03:39:19.017Z,18.83
2023-04-17T03:41:45.450Z,17.52
2023-04-17T03:44:12.599Z,17.77
2023-04-17T03:46:39.155Z,18.30
2023-04-17T03:49:06.237Z,19.55
2023-04-17T03:51:32.727Z,19.73
2023-04-17T03:54:02.463Z,19.45
2023-04-17T03:56:28.926Z,20.90
2023-04-17T03:58:55.447Z,23.52
2023-04-17T04:01:22.373Z,22.55
2023-04-17T04:03:49.336Z,23.10
2023-04-17T04:06:20.200Z,24.48
2023-04-17T04:08:46.833Z,25.98
2023-04-17T04:11:13.916Z,26.52
2023-04-17T04:13:40.823Z,25.58
2023-04-17T04:16:08.274Z,26.17
2023-04-17T04:18:36.167Z,25.95
2023-04-17T04:21:02.708Z,26.27
2023-04-17T04:23:30.579Z,26.70
2023-04-17T04:25:57.973Z,27.20
2023-04-17T04:28:24.515Z,26.75
2023-04-17T04:30:53.501Z,27.45
2023-04-17T04:33:20.898Z,27.58
2023-04-17T04:35:48.518Z,28.10
2023-04-17T04:38:20.061Z,27.95
2023-04-17T04:40:50.017Z,27.80
2023-04-17T04:43:16.656Z,28.05
2023-04-17T04:45:43.311Z,26.88
2023-04-17T04:48:09.829Z,27.98
2023-04-17T04:50:36.458Z,27.15
2023-04-17T04:53:02.951Z,28.35
2023-04-17T04:55:30.774Z,28.42
2023-04-17T04:57:57.588Z,28.92
2023-04-17T05:00:24.872Z,29.60
2023-04-17T05:02:51.437Z,30.70
2023-04-17T05:05:18.190Z,28.10
2023-04-17T05:07:44.648Z,28.70
2023-04-17T05:10:11.206Z,28.45
2023-04-17T05:12:37.842Z,27.77
2023-04-17T05:15:04.794Z,27.55
2023-04-17T05:17:31.371Z,27.40
2023-04-17T05:19:57.952Z,26.98
2023-04-17T05:22:27.584Z,26.42
2023-04-17T05:24:54.163Z,26.25
2023-04-17T05:27:20.696Z,27.40
2023-04-17T05:29:47.253Z,27.05
2023-04-17T05:32:17.185Z,27.33
2023-04-17T05:34:43.649Z,26.42
2023-04-17T05:37:10.093Z,25.65
2023-04-17T05:39:36.636Z,26.58
2023-04-17T05:42:03.138Z,26.55
2023-04-17T05:44:30.172Z,25.40
2023-04-17T05:46:57.387Z,26.42
2023-04-17T05:49:23.918Z,25.92
2023-04-17T05:51:52.708Z,25.45
2023-04-17T05:54:19.175Z,24.20
2023-04-17T05:56:45.760Z,24.15
2023-04-17T05:59:12.447Z,23.85
2023-04-17T06:01:39.593Z,24.13
2023-04-17T06:04:06.621Z,25.42
2023-04-17T06:06:33.426Z,25.10
2023-04-17T06:08:59.857Z,23.88
2023-04-17T06:11:27.173Z,23.48
2023-04-17T06:13:53.710Z,22.60
2023-04-17T06:16:20.472Z,24.10
2023-04-17T06:18:49.726Z,22.88
2023-04-17T06:21:18.537Z,22.50
2023-04-17T06:23:44.982Z,22.15
2023-04-17T06:26:12.292Z,21.20
2023-04-17T06:28:38.785Z,22.17
2023-04-17T06:31:05.450Z,22.25
2023-04-17T06:33:32.499Z,21.33
2023-04-17T06:35:58.961Z,19.98
2023-04-17T06:38:25.424Z,19.63
2023-04-17T06:40:52.839Z,20.63
2023-04-17T06:43:19.365Z,19.38
2023-04-17T06:45:45.873Z,18.58
2023-04-17T06:48:12.346Z,19.27
2023-04-17T06:50:38.896Z,20.70
2023-04-17T06:53:05.732Z,20.08
2023-04-17T06:55:32.235Z,19.38
2023-04-17T06:57:58.714Z,19.65
2023-04-17T07:00:25.365Z,19.90
2023-04-17T07:02:52.009Z,21.23
2023-04-17T07:05:18.597Z,19.55
2023-04-17T07:07:45.209Z,19.25
2023-04-17T07:10:11.738Z,18.95
2023-04-17T07:12:38.241Z,19.08
2023-04-17T07:15:05.094Z,19.42
2023-04-17T07:17:31.704Z,19.17
2023-04-17T07:19:58.161Z,18.52
2023-04-17T07:22:26.585Z,19.30
2023-04-17T07:24:53.754Z,20.65
2023-04-17T07:27:20.349Z,18.40
2023-04-17T07:29:52.823Z,18.58
2023-04-17T07:32:19.396Z,19.23
2023-04-17T07:34:45.989Z,16.65
2023-04-17T07:37:12.472Z,16.65
2023-04-17T07:39:39.014Z,17.38
2023-04-17T07:42:08.766Z,16.67
2023-04-17T07:44:35.488Z,17.85
2023-04-17T07:47:02.152Z,16.92
2023-04-17T07:49:28.789Z,17.38
2023-04-17T07:51:55.565Z,18.20
2023-04-17T07:54:22.043Z,18.33
2023-04-17T07:56:49.444Z,17.88
2023-04-17T07:59:19.037Z,17.17
2023-04-17T08:01:45.574Z,18.30
2023-04-17T08:04:15.516Z,17.05
2023-04-17T08:06:42.172Z,16.77
2023-04-17T08:09:08.635Z,17.13
2023-04-17T08:11:40.144Z,17.88
2023-04-17T08:14:12.810Z,17.95
2023-04-17T08:16:39.305Z,17.25
2023-04-17T08:19:05.880Z,18.48
2023-04-17T08:21:32.404Z,18.42
2023-04-17T08:23:59.036Z,18.58
2023-04-17T08:26:25.516Z,18.17
2023-04-17T08:28:53.728Z,17.45
2023-04-17T08:31:20.406Z,16.98
2023-04-17T08:33:46.920Z,17.55
2023-04-17T08:36:13.669Z,18.05
2023-04-17T08:38:42.036Z,16.50
2023-04-17T08:41:13.258Z,16.50
2023-04-17T08:43:40.272Z,17.77
2023-04-17T08:46:07.532Z,15.88
2023-04-17T08:48:34.191Z,16.65
2023-04-17T08:51:01.711Z,16.40
2023-04-17T08:53:28.220Z,15.98
2023-04-17T08:55:54.690Z,16.15
2023-04-17T08:58:28.448Z,16.88
2023-04-17T09:00:55.945Z,16.65
2023-04-17T09:03:22.553Z,17.88
2023-04-17T09:05:49.201Z,17.58
2023-04-17T09:08:20.769Z,16.13
2023-04-17T09:10:48.792Z,15.13
2023-04-17T09:13:20.877Z,14.15
2023-04-17T09:16:03.399Z,15.65
2023-04-17T09:18:31.474Z,15.18
2023-04-17T09:20:59.826Z,15.57
2023-04-17T09:23:45.838Z,15.88
2023-04-17T09:26:16.562Z,15.50
2023-04-17T09:29:14.604Z,13.30
2023-04-17T09:31:42.991Z,14.02
2023-04-17T09:34:15.280Z,14.48
2023-04-17T09:36:43.836Z,14.88
2023-04-17T09:39:23.804Z,15.30
2023-04-17T09:42:02.317Z,14.23
2023-04-17T09:44:30.329Z,15.13
2023-04-17T09:46:57.323Z,12.48
2023-04-17T09:49:52.829Z,12.73
2023-04-17T09:52:23.745Z,13.50
2023-04-17T09:54:51.308Z,12.68
2023-04-17T09:57:18.615Z,12.13
2023-04-17T09:59:48.047Z,13.77
2023-04-17T10:02:17.025Z,12.82
2023-04-17T10:04:45.150Z,13.90
2023-04-17T10:07:13.252Z,13.55
2023-04-17T10:09:45.636Z,12.95
2023-04-17T10:12:15.357Z,12.98
2023-04-17T10:14:46.586Z,12.50
2023-04-17T10:17:31.755Z,14.40
2023-04-17T10:20:23.120Z,13.65
2023-04-17T10:22:54.872Z,13.68
2023-04-17T10:25:28.214Z,13.57
2023-04-17T10:27:58.300Z,12.90
2023-04-17T10:30:44.913Z,11.50
2023-04-17T10:33:20.096Z,12.38
2023-04-17T10:35:46.779Z,12.38
2023-04-17T10:38:13.293Z,12.35
2023-04-17T10:40:43.060Z,12.68
2023-04-17T10:43:17.561Z,12.93
2023-04-17T10:46:12.880Z,12.68
2023-04-17T10:48:52.807Z,13.02
2023-04-17T10:51:28.910Z,13.63
2023-04-17T10:54:03.688Z,12.48
2023-04-17T10:56:40.641Z,13.82
2023-04-17T10:59:09.657Z,13.68
2023-04-17T11:01:48.578Z,13.32
2023-04-17T11:04:27.530Z,13.10
2023-04-17T11:06:55.933Z,13.55
2023-04-17T11:09:30.945Z,14.05
2023-04-17T11:12:03.706Z,13.75
2023-04-17T11:14:31.095Z,14.45
2023-04-17T11:16:57.759Z,12.60
2023-04-17T11:19:26.164Z,13.38
2023-04-17T11:21:54.650Z,15.00
2023-04-17T11:24:28.103Z,13.65
2023-04-17T11:26:56.709Z,13.10
2023-04-17T11:29:24.536Z,14.05
2023-04-17T11:31:53.794Z,13.38
2023-04-17T11:34:21.128Z,13.18
2023-04-17T11:36:54.863Z,11.75
2023-04-17T11:39:23.358Z,13.23
2023-04-17T11:41:51.919Z,12.35
2023-04-17T11:44:22.707Z,13.27
2023-04-17T11:46:51.260Z,11.77
2023-04-17T11:49:27.377Z,7.45
2023-04-17T11:51:59.246Z,9.85
2023-04-17T11:54:34.522Z,10.70
2023-04-17T11:57:07.008Z,11.55
2023-04-17T11:59:37.787Z,9.85
2023-04-17T12:02:08.301Z,11.60
2023-04-17T12:04:39.673Z,11.13
2023-04-17T12:07:11.279Z,11.93
2023-04-17T12:09:37.766Z,12.37
2023-04-17T12:12:06.416Z,11.80
2023-04-17T12:14:33.256Z,12.05
2023-04-17T12:16:59.868Z,12.70
2023-04-17T12:19:27.449Z,11.18
2023-04-17T12:21:54.616Z,11.20
2023-04-17T12:24:22.895Z,8.95
2023-04-17T12:26:53.445Z,11.30
2023-04-17T12:29:32.231Z,11.13
2023-04-17T12:32:07.415Z,11.75
2023-04-17T12:34:34.071Z,11.75
2023-04-17T12:37:01.125Z,12.07
2023-04-17T12:39:27.629Z,10.27
2023-04-17T12:41:54.089Z,10.32
2023-04-17T12:44:20.691Z,10.05
2023-04-17T12:46:47.178Z,10.60
2023-04-17T12:49:13.736Z,10.27
2023-04-17T12:51:41.208Z,10.85
2023-04-17T12:54:08.208Z,11.13
2023-04-17T12:56:34.896Z,10.55
2023-04-17T12:59:02.990Z,11.00
2023-04-17T13:01:32.944Z,10.98
2023-04-17T13:03:59.600Z,10.77
2023-04-17T13:06:28.033Z,9.40
2023-04-17T13:08:54.538Z,6.47
2023-04-17T13:11:23.440Z,9.85
2023-04-17T13:13:49.921Z,6.07
2023-04-17T13:16:16.457Z,11.68
2023-04-17T13:18:42.992Z,11.73
2023-04-17T13:21:09.515Z,11.45
2023-04-17T13:23:36.020Z,11.80
2023-04-17T13:26:02.481Z,11.93
2023-04-17T13:28:28.936Z,8.93
2023-04-17T13:30:55.828Z,10.30
2023-04-17T13:33:22.370Z,7.97
2023-04-17T13:35:53.181Z,7.43
2023-04-17T13:38:19.653Z,9.20
2023-04-17T13:40:46.206Z,10.35
2023-04-17T13:43:12.662Z,9.63
2023-04-17T13:45:39.161Z,11.32
2023-04-17T13:48:05.783Z,11.50
2023-04-17T13:50:32.371Z,11.63
2023-04-17T13:52:58.855Z,7.00
2023-04-17T13:55:25.412Z,10.73
2023-04-17T13:57:51.898Z,10.85
2023-04-17T14:00:18.891Z,10.30
2023-04-17T14:02:45.499Z,10.65
2023-04-17T14:05:12.278Z,9.77
2023-04-17T14:07:38.764Z,9.70
2023-04-17T14:10:09.122Z,9.82
2023-04-17T14:12:36.286Z,9.30
2023-04-17T14:15:03.026Z,9.20
2023-04-17T14:17:29.592Z,9.05
2023-04-17T14:19:59.122Z,9.63
2023-04-17T14:22:25.619Z,10.02
2023-04-17T14:24:52.107Z,11.13
2023-04-17T14:27:18.572Z,8.15
2023-04-17T14:29:47.487Z,10.68
2023-04-17T14:32:13.925Z,9.25
2023-04-17T14:34:40.404Z,10.45
2023-04-17T14:37:06.882Z,9.10
2023-04-17T14:39:33.389Z,9.05
2023-04-17T14:42:01.912Z,9.90
2023-04-17T14:44:28.874Z,9.32
2023-04-17T14:46:56.801Z,6.20
2023-04-17T14:49:26.717Z,8.35
2023-04-17T14:51:53.264Z,7.18
2023-04-17T14:54:19.732Z,10.13
2023-04-17T14:56:46.255Z,9.63
2023-04-17T14:59:12.921Z,9.80
2023-04-17T15:01:39.611Z,8.98
2023-04-17T15:04:06.710Z,8.73
2023-04-17T15:06:33.464Z,9.65
2023-04-17T15:08:59.897Z,9.80
2023-04-17T15:11:26.447Z,9.77
2023-04-17T15:13:52.888Z,10.32
2023-04-17T15:16:22.267Z,8.57
2023-04-17T15:18:48.916Z,10.02
2023-04-17T15:21:16.349Z,9.60
2023-04-17T15:23:42.810Z,9.20
2023-04-17T15:26:09.320Z,9.82
2023-04-17T15:28:36.883Z,9.30
2023-04-17T15:31:03.494Z,9.90
2023-04-17T15:33:30.140Z,10.32
2023-04-17T15:35:58.442Z,10.30
2023-04-17T15:38:25.817Z,10.13
2023-04-17T15:40:52.766Z,9.95
2023-04-17T15:43:20.004Z,10.52
2023-04-17T15:45:48.694Z,8.98
2023-04-17T15:48:15.834Z,8.82
2023-04-17T15:50:42.430Z,9.95
2023-04-17T15:53:09.820Z,8.95
2023-04-17T15:55:36.771Z,8.73
2023-04-17T15:58:03.475Z,9.27
2023-04-17T16:00:30.023Z,8.88
2023-04-17T16:02:56.557Z,9.45
2023-04-17T16:05:23.069Z,9.25
2023-04-17T16:07:50.027Z,9.13
2023-04-17T16:10:16.971Z,9.23
2023-04-17T16:12:45.013Z,9.38
2023-04-17T16:15:16.286Z,9.40
2023-04-17T16:17:43.397Z,9.05
2023-04-17T16:20:13.269Z,7.50
2023-04-17T16:22:40.203Z,7.30
2023-04-17T16:25:09.983Z,7.88
2023-04-17T16:27:37.060Z,7.80
2023-04-17T16:30:05.045Z,8.23
2023-04-17T16:32:31.945Z,8.65
2023-04-17T16:34:58.790Z,8.10
2023-04-17T16:37:25.604Z,8.20
2023-04-17T16:39:52.274Z,9.10
2023-04-17T16:42:18.845Z,8.88
2023-04-17T16:44:48.807Z,8.95
2023-04-17T16:47:15.411Z,9.10
2023-04-17T16:49:42.613Z,9.10
2023-04-17T16:52:09.657Z,9.68
2023-04-17T16:54:36.104Z,11.02
2023-04-17T16:57:02.673Z,9.52
2023-04-17T16:59:29.111Z,9.52
2023-04-17T17:01:55.669Z,9.30
2023-04-17T17:04:22.263Z,9.50
2023-04-17T17:06:48.815Z,9.32
2023-04-17T17:09:15.559Z,9.98
2023-04-17T17:11:45.211Z,9.40
2023-04-17T17:14:11.755Z,9.30
2023-04-17T17:16:40.627Z,9.93
2023-04-17T17:19:07.183Z,9.45
2023-04-17T17:21:33.672Z,10.40
2023-04-17T17:24:00.931Z,10.07
2023-04-17T17:26:27.405Z,10.40
2023-04-17T17:28:55.366Z,10.88
2023-04-17T17:31:21.958Z,10.93
2023-04-17T17:33:50.182Z,9.52
2023-04-17T17:36:16.989Z,10.00
2023-04-17T17:38:44.000Z,10.75
2023-04-17T17:41:10.650Z,10.55
2023-04-17T17:43:38.925Z,9.95
2023-04-17T17:46:05.543Z,10.10
2023-04-17T17:48:34.079Z,9.95
2023-04-17T17:51:00.531Z,10.65
2023-04-17T17:53:27.320Z,10.25
2023-04-17T17:55:55.978Z,10.52
2023-04-17T17:58:23.305Z,10.80
2023-04-17T18:00:53.378Z,10.95
2023-04-17T18:03:20.722Z,10.05
2023-04-17T18:05:47.611Z,10.85
2023-04-17T18:08:14.474Z,10.95
2023-04-17T18:10:40.996Z,10.60
2023-04-17T18:13:07.508Z,10.65
2023-04-17T18:15:34.106Z,11.27
2023-04-17T18:18:00.749Z,12.45
2023-04-17T18:20:27.378Z,11.88
2023-04-17T18:22:53.965Z,11.90
2023-04-17T18:25:20.626Z,12.43
2023-04-17T18:27:47.081Z,12.48
2023-04-17T18:30:14.253Z,12.50
2023-04-17T18:32:40.752Z,11.93
2023-04-17T18:35:07.736Z,12.30
2023-04-17T18:37:34.207Z,13.35
2023-04-17T18:40:00.745Z,12.15
2023-04-17T18:42:27.179Z,11.93
2023-04-17T18:44:53.661Z,11.70
2023-04-17T18:47:20.359Z,12.00
2023-04-17T18:49:47.010Z,11.90
2023-04-17T18:52:13.508Z,11.80
2023-04-17T18:54:40.035Z,12.25
2023-04-17T18:57:06.582Z,10.40
2023-04-17T18:59:33.136Z,11.02
2023-04-17T19:01:59.592Z,11.05
2023-04-17T19:04:26.752Z,11.82
2023-04-17T19:06:53.217Z,9.88
2023-04-17T19:09:19.780Z,10.73
2023-04-17T19:11:46.634Z,10.27
2023-04-17T19:14:13.385Z,9.75
2023-04-17T19:16:40.176Z,8.65
2023-04-17T19:19:08.280Z,9.48
2023-04-17T19:21:34.800Z,9.10
2023-04-17T19:24:01.254Z,9.85
2023-04-17T19:26:27.760Z,8.48
2023-04-17T19:28:55.051Z,10.32
2023-04-17T19:31:21.891Z,9.52
2023-04-17T19:33:48.384Z,9.35
2023-04-17T19:36:14.930Z,10.05
2023-04-17T19:38:41.397Z,9.82
2023-04-17T19:41:17.277Z,9.98
2023-04-17T19:43:49.715Z,10.00
2023-04-17T19:46:17.065Z,9.32
2023-04-17T19:48:45.301Z,10.52
2023-04-17T19:51:15.953Z,10.05
2023-04-17T19:53:43.633Z,9.10
2023-04-17T19:56:10.837Z,9.68
2023-04-17T19:58:38.181Z,9.10
2023-04-17T20:01:05.281Z,9.10
2023-04-17T20:03:32.466Z,9.10
2023-04-17T20:06:00.129Z,8.55
2023-04-17T20:08:26.740Z,8.95
2023-04-17T20:10:56.384Z,8.55
2023-04-17T20:13:22.845Z,8.88
2023-04-17T20:15:49.460Z,8.52
2023-04-17T20:18:18.844Z,8.63
2023-04-17T20:20:45.436Z,7.97
2023-04-17T20:23:12.216Z,7.97
2023-04-17T20:25:38.718Z,8.68
2023-04-17T20:28:09.627Z,8.10
2023-04-17T20:30:41.579Z,8.38
2023-04-17T20:35:37.659Z,7.88
2023-04-17T20:38:04.533Z,8.10
2023-04-17T20:40:31.031Z,7.70
2023-04-17T20:42:57.491Z,7.93
2023-04-17T20:45:23.970Z,8.13
2023-04-17T20:50:24.080Z,7.53
2023-04-17T20:52:50.712Z,7.78
2023-04-17T20:55:19.569Z,7.68
2023-04-17T20:57:46.381Z,7.28
2023-04-17T21:00:13.337Z,7.55
2023-04-17T21:02:40.007Z,7.40
2023-04-17T21:05:09.621Z,7.07
2023-04-17T21:07:36.597Z,7.57
2023-04-17T21:10:03.601Z,7.28
2023-04-17T21:12:32.725Z,7.68
2023-04-17T21:15:01.955Z,7.25
2023-04-17T21:17:28.583Z,7.93
2023-04-17T21:19:56.230Z,7.70
2023-04-17T21:22:22.841Z,7.78
2023-04-17T21:24:49.465Z,8.38
2023-04-17T21:27:16.202Z,7.88
2023-04-17T21:29:43.184Z,8.32
2023-04-17T21:32:12.437Z,7.88
2023-04-17T21:34:39.146Z,7.85
2023-04-17T21:37:05.614Z,8.25
2023-04-17T21:39:33.327Z,6.95
2023-04-17T21:42:00.222Z,7.63
2023-04-17T21:44:26.706Z,7.45
2023-04-17T21:46:53.330Z,8.27
2023-04-17T21:49:28.295Z,7.57
2023-04-17T21:52:02.583Z,8.48
2023-04-17T21:54:29.051Z,7.90
2023-04-17T21:56:55.683Z,7.93
2023-04-17T21:59:22.160Z,7.72
2023-04-17T22:01:48.667Z,7.70
2023-04-17T22:04:15.281Z,8.25
2023-04-17T22:06:44.492Z,8.80
2023-04-17T22:09:12.480Z,8.77
2023-04-17T22:11:48.450Z,8.75
2023-04-17T22:14:16.529Z,8.75
2023-04-17T22:16:43.593Z,9.57
2023-04-17T22:19:13.468Z,11.02
2023-04-17T22:21:40.188Z,10.23
2023-04-17T22:24:10.687Z,10.07
2023-04-17T22:26:43.702Z,9.55
2023-04-17T22:29:10.173Z,11.38
2023-04-17T22:31:36.793Z,11.60
2023-04-17T22:34:03.652Z,11.77
2023-04-17T22:36:36.069Z,12.38
2023-04-17T22:39:02.636Z,13.60
2023-04-17T22:41:32.324Z,12.77
2023-04-17T22:43:58.811Z,13.02
2023-04-17T22:46:25.289Z,12.80
2023-04-17T22:48:51.802Z,14.38
2023-04-17T22:51:18.250Z,15.73
2023-04-17T22:53:44.732Z,13.65
2023-04-17T22:56:12.871Z,15.05
2023-04-17T22:58:39.363Z,13.55
2023-04-17T23:01:09.155Z,14.23
2023-04-17T23:03:35.745Z,15.50
2023-04-17T23:06:03.086Z,15.77
2023-04-17T23:08:32.591Z,16.42
2023-04-17T23:11:00.780Z,15.95
2023-04-17T23:13:28.164Z,16.67
2023-04-17T23:15:54.836Z,16.25
2023-04-17T23:18:21.428Z,15.15
2023-04-17T23:20:47.949Z,14.85
2023-04-17T23:23:18.425Z,14.40
2023-04-17T23:25:46.093Z,15.27
2023-04-17T23:28:12.642Z,15.68
2023-04-17T23:30:39.183Z,15.00
2023-04-17T23:33:05.739Z,14.18
2023-04-17T23:35:32.242Z,13.73
2023-04-17T23:37:58.707Z,14.05
2023-04-17T23:40:26.290Z,14.77
2023-04-17T23:42:53.070Z,13.77
2023-04-17T23:45:22.857Z,13.13
2023-04-17T23:47:49.433Z,13.43
2023-04-17T23:50:16.017Z,13.43
2023-04-17T23:52:42.503Z,14.65
2023-04-17T23:55:09.265Z,12.95
2023-04-17T23:57:37.736Z,11.98
